Time;durP1;ratioP1;P1;durP2;ratioP2;P2;SDS_P1;SDS_P2;PMS_P1;PMS_P2;Temp;Humidity;BMP_temperature;BMP_pressure;BME280_temperature;BME280_humidity;BME280_pressure;Samples;Min_cycle;Max_cycle;Signal;HPM_P1;HPM_P2
2022/01/07 00:01:54;;;;;;;7.35;2.55;;;;;;;-0.86;64.44;99835.31;4304717;33;33889;-70
2022/01/07 00:04:22;;;;;;;5.30;2.25;;;;;;;-1.04;64.31;99843.06;4290093;33;34742;-74
2022/01/07 00:06:50;;;;;;;6.35;2.50;;;;;;;-0.81;64.39;99848.28;4296285;33;35261;-73
2022/01/07 00:09:18;;;;;;;3.28;2.25;;;;;;;-1.20;65.53;99831.28;4303343;33;33349;-74
2022/01/07 00:11:46;;;;;;;5.47;2.45;;;;;;;-0.62;63.99;99847.38;4304521;33;34019;-75
2022/01/07 00:14:14;;;;;;;3.35;2.10;;;;;;;-1.05;65.05;99838.75;4303614;33;35068;-74
2022/01/07 00:16:42;;;;;;;3.35;2.22;;;;;;;-1.04;64.79;99840.50;4304571;33;34358;-74
2022/01/07 00:19:10;;;;;;;5.47;2.60;;;;;;;-0.92;64.39;99845.25;4303402;33;33277;-74
2022/01/07 00:21:38;;;;;;;3.58;2.58;;;;;;;-0.62;63.83;99842.25;4291254;33;32506;-74
2022/01/07 00:24:06;;;;;;;6.12;3.10;;;;;;;-0.50;62.94;99845.31;4295143;33;35806;-74
2022/01/07 00:26:34;;;;;;;4.15;2.72;;;;;;;-0.39;62.62;99848.31;4300542;33;34491;-74
2022/01/07 00:29:02;;;;;;;3.22;1.98;;;;;;;-1.15;65.25;99851.91;4289320;33;34287;-74
2022/01/07 00:31:30;;;;;;;3.95;2.25;;;;;;;-0.68;64.49;99849.69;4289980;33;34048;-72
2022/01/07 00:33:58;;;;;;;7.37;2.87;;;;;;;-0.88;65.15;99852.25;4296763;33;35971;-74
2022/01/07 00:36:27;;;;;;;4.45;2.37;;;;;;;-0.43;63.36;99849.03;4304090;33;34541;-74
2022/01/07 00:38:54;;;;;;;4.87;2.30;;;;;;;-0.73;63.56;99856.28;4287165;33;33314;-75
2022/01/07 00:41:22;;;;;;;4.95;2.72;;;;;;;-0.22;62.63;99855.00;4287961;33;33880;-71
2022/01/07 00:43:50;;;;;;;6.72;2.62;;;;;;;-0.92;64.52;99859.72;4296695;33;35060;-71
2022/01/07 00:46:20;;;;;;;7.25;3.35;;;;;;;-0.98;65.29;99861.19;4289519;33;35199;-74
2022/01/07 00:48:49;;;;;;;5.43;2.37;;;;;;;-1.03;65.53;99856.69;4289375;33;32680;-71
2022/01/07 00:51:16;;;;;;;3.75;2.17;;;;;;;-1.30;66.43;99853.81;4289768;33;33882;-74
2022/01/07 00:53:44;;;;;;;8.95;3.05;;;;;;;-1.72;68.51;99840.00;4279308;33;35167;-75
2022/01/07 00:56:13;;;;;;;5.95;2.50;;;;;;;-2.13;70.13;99841.50;4289701;33;35279;-74
2022/01/07 00:58:40;;;;;;;6.15;2.60;;;;;;;-2.00;69.86;99844.62;4293572;33;33393;-74
2022/01/07 01:01:08;;;;;;;5.20;3.17;;;;;;;-1.75;68.90;99855.19;4291036;33;34150;-74
2022/01/07 01:03:37;;;;;;;5.55;3.10;;;;;;;-1.58;68.50;99857.66;4313567;33;35158;-75
2022/01/07 01:06:05;;;;;;;4.30;2.35;;;;;;;-1.70;69.58;99859.62;4289975;33;34522;-74
2022/01/07 01:08:32;;;;;;;4.18;2.65;;;;;;;-2.05;69.87;99852.06;4287444;33;32634;-74
2022/01/07 01:11:01;;;;;;;4.53;2.47;;;;;;;-1.64;68.76;99834.37;4300260;33;33628;-70
2022/01/07 01:13:31;;;;;;;4.03;2.67;;;;;;;-2.10;70.08;99834.00;4279468;33;35723;-74
2022/01/07 01:15:59;;;;;;;5.12;2.92;;;;;;;-1.88;69.95;99840.09;4290027;33;34323;-74
2022/01/07 01:18:27;;;;;;;10.18;3.25;;;;;;;-1.53;68.76;99838.31;4295930;33;33445;-74
2022/01/07 01:20:56;;;;;;;4.75;3.15;;;;;;;-1.64;68.90;99839.47;4290884;33;33892;-74
2022/01/07 01:23:23;;;;;;;4.40;2.67;;;;;;;-1.92;70.42;99835.66;4302708;33;36011;-74
2022/01/07 01:25:52;;;;;;;4.45;2.22;;;;;;;-1.94;70.61;99827.94;4303722;33;35295;-72
2022/01/07 01:28:19;;;;;;;4.85;2.62;;;;;;;-1.41;68.54;99821.00;4300867;33;33587;-74
2022/01/07 01:30:47;;;;;;;9.63;4.15;;;;;;;-2.04;71.21;99820.63;4276186;33;33427;-72
2022/01/07 01:33:17;;;;;;;9.98;3.28;;;;;;;-1.79;69.18;99819.25;4290077;33;34956;-74
2022/01/07 01:35:44;;;;;;;4.93;2.85;;;;;;;-1.46;69.30;99819.91;4302371;33;34516;-74
2022/01/07 01:38:12;;;;;;;5.93;3.45;;;;;;;-1.85;70.29;99831.69;4289638;33;33459;-71
2022/01/07 01:40:40;;;;;;;6.20;3.15;;;;;;;-1.99;70.81;99826.84;4303563;33;34007;-74
2022/01/07 01:43:08;;;;;;;9.15;3.37;;;;;;;-1.97;70.48;99824.38;4302348;33;35027;-74
2022/01/07 01:45:36;;;;;;;6.20;2.80;;;;;;;-1.88;70.53;99827.34;4303642;33;35173;-73
2022/01/07 01:48:04;;;;;;;5.47;2.87;;;;;;;-1.86;70.61;99823.19;4289848;33;33378;-74
2022/01/07 01:50:32;;;;;;;6.57;2.97;;;;;;;-1.53;69.30;99831.50;4303353;33;34700;-71
2022/01/07 01:53:00;;;;;;;5.70;3.05;;;;;;;-1.49;69.06;99832.53;4303306;33;35940;-73
2022/01/07 01:55:28;;;;;;;11.15;3.50;;;;;;;-1.85;69.80;99839.34;4294581;33;33198;-74
2022/01/07 01:57:56;;;;;;;4.32;2.87;;;;;;;-1.79;69.89;99845.62;4290436;33;32671;-73
2022/01/07 02:00:26;;;;;;;4.60;2.70;;;;;;;-1.66;69.37;99848.75;4288907;33;34025;-73
2022/01/07 02:02:54;;;;;;;5.30;2.85;;;;;;;-1.68;69.93;99842.69;4278021;33;36485;-74
2022/01/07 02:05:23;;;;;;;8.10;3.35;;;;;;;-1.65;69.28;99850.50;4301395;33;34482;-74
2022/01/07 02:07:50;;;;;;;6.97;2.90;;;;;;;-1.17;68.11;99849.28;4290985;33;34286;-72
2022/01/07 02:10:19;;;;;;;6.28;3.45;;;;;;;-1.40;69.07;99857.63;4287369;33;33772;-71
2022/01/07 02:12:47;;;;;;;5.50;2.95;;;;;;;-1.12;67.28;99861.41;4277599;33;34276;-74
2022/01/07 02:15:15;;;;;;;5.22;3.00;;;;;;;-1.38;68.17;99864.56;4291120;33;34448;-74
2022/01/07 02:17:46;;;;;;;7.18;2.80;;;;;;;-1.55;68.16;99858.66;4305573;33;34153;-74
2022/01/07 02:20:17;;;;;;;4.65;2.53;;;;;;;-1.57;69.37;99869.59;4288869;33;33835;-72
2022/01/07 02:22:45;;;;;;;10.90;2.80;;;;;;;-0.94;66.77;99861.34;4277903;33;35121;-74
2022/01/07 02:25:13;;;;;;;5.47;3.30;;;;;;;-1.17;66.79;99868.84;4302161;33;34405;-71
2022/01/07 02:27:43;;;;;;;3.80;2.58;;;;;;;-1.31;67.44;99873.34;4304178;33;34361;-70
2022/01/07 02:30:14;;;;;;;5.20;3.40;;;;;;;-0.79;65.96;99877.34;4304376;33;32952;-71
2022/01/07 02:32:42;;;;;;;6.95;2.65;;;;;;;-0.79;65.47;99882.47;4304374;33;34261;-71
2022/01/07 02:35:11;;;;;;;7.40;3.15;;;;;;;-0.74;64.88;99877.53;4304007;33;35133;-71
2022/01/07 02:37:39;;;;;;;5.85;3.30;;;;;;;-0.51;63.70;99881.06;4292252;33;33578;-74
2022/01/07 02:40:08;;;;;;;6.72;3.28;;;;;;;-0.59;64.15;99886.75;4288427;33;33853;-74
2022/01/07 02:42:37;;;;;;;9.70;2.67;;;;;;;-0.60;64.00;99890.12;4277586;33;35039;-72
2022/01/07 02:45:08;;;;;;;5.10;2.17;;;;;;;-0.13;62.29;99887.78;4300707;33;34394;-73
2022/01/07 02:47:49;;;;;;;5.82;2.62;;;;;;;-1.22;66.14;99890.78;4292371;33;34331;-74
2022/01/07 02:50:19;;;;;;;4.57;2.37;;;;;;;-0.67;63.04;99883.00;4291466;33;33843;-74
2022/01/07 02:52:47;;;;;;;4.53;2.70;;;;;;;-0.24;62.12;99884.78;4305120;33;35957;-70
2022/01/07 02:55:17;;;;;;;7.37;3.03;;;;;;;-0.48;62.96;99876.97;4291064;33;34652;-74
2022/01/07 02:57:45;;;;;;;4.35;2.60;;;;;;;-0.79;63.17;99879.91;4305129;33;32686;-71
2022/01/07 03:00:14;;;;;;;5.57;2.75;;;;;;;-0.88;64.08;99880.38;4293051;33;34085;-74
2022/01/07 03:02:42;;;;;;;5.93;2.72;;;;;;;-1.13;64.74;99870.72;4290617;33;35012;-73
2022/01/07 03:05:10;;;;;;;7.20;2.85;;;;;;;-1.48;65.96;99872.59;4295299;33;34595;-73
2022/01/07 03:07:39;;;;;;;6.95;2.78;;;;;;;-1.56;65.88;99873.91;4277361;33;32841;-74
2022/01/07 03:10:08;;;;;;;4.50;2.72;;;;;;;-1.11;65.03;99871.72;4288742;33;33861;-74
2022/01/07 03:12:37;;;;;;;9.98;3.22;;;;;;;-1.22;64.58;99872.88;4286507;33;34838;-71
2022/01/07 03:15:05;;;;;;;4.93;2.95;;;;;;;-1.89;66.44;99868.97;4289575;33;34485;-74
2022/01/07 03:17:33;;;;;;;3.45;2.33;;;;;;;-1.67;66.99;99880.22;4291927;33;33578;-71
2022/01/07 03:20:01;;;;;;;3.58;2.37;;;;;;;-1.61;67.02;99883.03;4303938;33;33892;-74
2022/01/07 03:22:29;;;;;;;3.72;2.55;;;;;;;-1.94;68.49;99881.53;4304909;33;35186;-74
2022/01/07 03:24:57;;;;;;;5.50;2.85;;;;;;;-1.59;67.47;99895.09;4290686;33;34584;-73
2022/01/07 03:27:25;;;;;;;10.73;3.58;;;;;;;-1.59;66.81;99882.31;4304959;33;33667;-74
2022/01/07 03:29:53;;;;;;;4.07;2.70;;;;;;;-1.94;67.42;99894.28;4303913;33;33903;-71
2022/01/07 03:32:20;;;;;;;5.30;2.78;;;;;;;-1.16;65.11;99893.63;4304766;33;35731;-74
2022/01/07 03:34:48;;;;;;;3.53;2.35;;;;;;;-0.82;63.83;99906.22;4285755;33;34346;-73
2022/01/07 03:37:16;;;;;;;5.20;2.80;;;;;;;-1.14;64.33;99904.78;4290447;33;33569;-74
2022/01/07 03:39:44;;;;;;;7.30;2.83;;;;;;;-0.53;62.51;99908.28;4281654;33;33871;-74
2022/01/07 03:42:12;;;;;;;6.55;2.70;;;;;;;-0.38;61.81;99908.94;4277344;33;35033;-71
2022/01/07 03:44:40;;;;;;;4.80;2.37;;;;;;;-0.97;63.07;99908.97;4289888;33;34584;-73
2022/01/07 03:47:09;;;;;;;8.13;2.90;;;;;;;-1.10;63.92;99911.78;4290582;33;34379;-74
2022/01/07 03:49:37;;;;;;;4.25;2.35;;;;;;;-1.53;65.07;99899.59;4279197;33;34063;-73
2022/01/07 03:52:06;;;;;;;4.93;2.60;;;;;;;-1.03;63.19;99911.25;4290277;33;36151;-72
2022/01/07 03:54:33;;;;;;;5.87;2.83;;;;;;;-1.34;63.90;99906.44;4302117;33;35176;-73
2022/01/07 03:57:01;;;;;;;4.22;2.17;;;;;;;-0.45;61.33;99907.78;4304601;33;33331;-74
2022/01/07 03:59:30;;;;;;;11.52;5.90;;;;;;;-0.43;61.38;99907.88;4298699;33;33762;-74
2022/01/07 04:01:58;;;;;;;10.63;5.65;;;;;;;-1.08;61.40;99912.72;4294559;33;35808;-73
2022/01/07 04:04:26;;;;;;;5.25;2.42;;;;;;;-1.75;63.05;99924.13;4294038;33;35403;-71
2022/01/07 04:06:54;;;;;;;5.30;2.60;;;;;;;-0.78;60.12;99920.00;4304554;33;33433;-72
2022/01/07 04:09:21;;;;;;;4.55;2.70;;;;;;;-1.68;62.70;99914.19;4303530;33;33894;-74
2022/01/07 04:11:49;;;;;;;9.55;3.62;;;;;;;-1.02;60.48;99912.13;4304517;33;35892;-74
2022/01/07 04:14:17;;;;;;;6.00;3.42;;;;;;;-1.25;60.63;99911.06;4302484;33;34445;-74
2022/01/07 04:16:45;;;;;;;4.50;2.55;;;;;;;-1.63;61.25;99907.63;4304462;33;34266;-74
2022/01/07 04:19:13;;;;;;;4.75;2.20;;;;;;;-2.17;63.74;99907.59;4300878;33;33996;-73
2022/01/07 04:21:41;;;;;;;5.22;2.55;;;;;;;-2.08;64.09;99899.50;4294350;33;35051;-72
2022/01/07 04:24:09;;;;;;;5.40;3.17;;;;;;;-1.55;63.78;99906.31;4290471;33;34286;-70
2022/01/07 04:26:37;;;;;;;4.80;2.95;;;;;;;-1.19;62.10;99901.13;4304404;33;33469;-73
2022/01/07 04:29:04;;;;;;;7.43;2.92;;;;;;;-2.00;63.84;99906.75;4303326;33;34144;-73
2022/01/07 04:31:32;;;;;;;5.20;3.60;;;;;;;-2.42;63.51;99911.47;4303350;33;35137;-73
2022/01/07 04:34:00;;;;;;;6.93;3.30;;;;;;;-2.35;62.73;99911.00;4302250;33;34550;-74
2022/01/07 04:36:28;;;;;;;7.53;3.10;;;;;;;-1.86;62.29;99904.00;4283699;33;205103;-71
2022/01/07 04:38:56;;;;;;;5.15;2.83;;;;;;;-1.75;61.79;99913.03;4289533;33;34711;-71
2022/01/07 04:41:24;;;;;;;10.35;3.78;;;;;;;-2.48;62.72;99916.28;4289784;33;36045;-72
2022/01/07 04:43:52;;;;;;;6.45;3.47;;;;;;;-3.01;65.49;99907.63;4289451;33;35315;-74
2022/01/07 04:46:19;;;;;;;6.55;3.75;;;;;;;-1.78;62.39;99908.66;4289725;33;33432;-73
2022/01/07 04:48:48;;;;;;;7.90;3.40;;;;;;;-1.88;60.45;99919.22;4289710;33;34725;-73
2022/01/07 04:51:15;;;;;;;4.78;2.97;;;;;;;-2.41;61.92;99925.13;4303986;33;35771;-73
2022/01/07 04:53:43;;;;;;;5.85;3.03;;;;;;;-3.91;68.94;99921.41;4304100;33;34498;-71
2022/01/07 04:56:11;;;;;;;3.78;2.47;;;;;;;-3.30;67.64;99929.88;4303338;33;33494;-73
2022/01/07 04:58:39;;;;;;;2.80;2.37;;;;;;;-2.41;64.34;99932.78;4303028;33;33997;-72
2022/01/07 05:01:07;;;;;;;5.62;3.08;;;;;;;-3.93;69.45;99936.59;4301114;33;35118;-74
2022/01/07 05:03:35;;;;;;;2.42;2.15;;;;;;;-2.94;66.53;99930.06;4288325;33;34581;-73
2022/01/07 05:06:27;;;;;;;4.28;2.08;;;;;;;-2.62;64.65;99928.31;4276232;33;33493;-73
2022/01/07 05:08:51;;;;;;;4.45;2.80;;;;;;;-2.56;63.31;99933.75;4293911;33;34059;-74
2022/01/07 05:11:19;;;;;;;4.40;2.37;;;;;;;-3.22;64.28;99927.72;4313762;33;35073;-74
2022/01/07 05:13:46;;;;;;;4.15;2.60;;;;;;;-3.72;67.38;99924.19;4304168;33;35225;-72
2022/01/07 05:16:14;;;;;;;3.42;2.47;;;;;;;-3.66;67.91;99927.06;4287994;33;32736;-71
2022/01/07 05:18:42;;;;;;;2.58;1.62;;;;;;;-3.00;64.76;99914.47;4303932;33;33965;-73
2022/01/07 05:21:10;;;;;;;13.93;6.28;;;;;;;-3.29;65.13;99926.53;4302726;33;36066;-74
2022/01/07 05:23:39;;;;;;;4.25;2.30;;;;;;;-3.41;63.72;99925.00;4290604;33;32964;-74
2022/01/07 05:26:07;;;;;;;5.05;2.00;;;;;;;-3.72;66.30;99924.19;4298879;33;33584;-74
2022/01/07 05:28:35;;;;;;;3.25;1.92;;;;;;;-3.48;63.50;99918.69;4279186;33;34789;-74
2022/01/07 05:31:04;;;;;;;2.75;2.08;;;;;;;-3.15;63.63;99931.50;4287535;33;35774;-75
2022/01/07 05:33:32;;;;;;;2.87;2.20;;;;;;;-2.96;63.21;99933.34;4304370;33;34331;-75
2022/01/07 05:36:00;;;;;;;3.42;2.65;;;;;;;-3.76;64.43;99942.59;4303965;33;34147;-76
2022/01/07 05:38:28;;;;;;;2.87;2.03;;;;;;;-3.64;65.42;99938.19;4306108;33;34683;-71
2022/01/07 05:40:56;;;;;;;4.18;1.98;;;;;;;-3.30;65.46;99937.53;4304429;33;34993;-73
2022/01/07 05:43:23;;;;;;;11.27;2.40;;;;;;;-3.09;62.33;99939.44;4305532;33;34665;-73
2022/01/07 05:45:51;;;;;;;5.53;2.75;;;;;;;-4.11;66.54;99938.06;4294144;33;33337;-74
2022/01/07 05:48:21;;;;;;;5.62;2.30;;;;;;;-4.54;70.59;99936.44;4291050;33;34007;-75
2022/01/07 05:50:49;;;;;;;9.55;3.22;;;;;;;-4.85;73.00;99934.66;4284804;33;35397;-73
2022/01/07 05:53:17;;;;;;;4.82;2.62;;;;;;;-3.53;65.69;99946.44;4291043;33;35249;-70
2022/01/07 05:55:45;;;;;;;3.53;2.10;;;;;;;-3.56;62.91;99951.38;4299772;33;33567;-74
2022/01/07 05:58:13;;;;;;;7.12;3.17;;;;;;;-4.46;67.04;99950.50;4292479;33;33796;-72
2022/01/07 06:00:41;;;;;;;20.00;9.43;;;;;;;-4.59;68.37;99940.37;4303199;33;35916;-71
2022/01/07 06:03:10;;;;;;;6.10;3.22;;;;;;;-4.54;68.89;99949.16;4288960;33;34172;-75
2022/01/07 06:05:39;;;;;;;16.20;4.37;;;;;;;-3.58;66.02;99952.06;4304283;33;33452;-71
2022/01/07 06:08:09;;;;;;;8.32;4.28;;;;;;;-4.79;69.17;99939.22;4292359;33;34736;-72
2022/01/07 06:10:37;;;;;;;29.40;11.93;;;;;;;-4.27;66.87;99951.56;4291061;33;35881;-70
2022/01/07 06:13:04;;;;;;;13.62;7.78;;;;;;;-4.68;66.53;99957.63;4303969;33;34163;-73
2022/01/07 06:15:32;;;;;;;21.58;6.20;;;;;;;-5.59;71.27;99954.63;4291393;33;33482;-75
2022/01/07 06:18:04;;;;;;;4.12;2.67;;;;;;;-4.36;68.79;99958.66;4302627;33;33933;-74
2022/01/07 06:20:32;;;;;;;7.07;3.45;;;;;;;-4.49;67.46;99955.41;4288540;33;34909;-72
2022/01/07 06:22:59;;;;;;;3.92;2.78;;;;;;;-4.76;67.72;99954.66;4289289;33;34448;-71
2022/01/07 06:25:28;;;;;;;7.50;2.25;;;;;;;-4.59;69.49;99955.63;4290048;33;33456;-76
2022/01/07 06:27:56;;;;;;;2.62;2.15;;;;;;;-3.70;64.72;99963.31;4286276;33;33905;-71
2022/01/07 06:30:24;;;;;;;3.90;2.30;;;;;;;-4.76;67.45;99965.69;4297523;33;35021;-75
2022/01/07 06:32:53;;;;;;;4.62;2.67;;;;;;;-4.25;66.89;99962.72;4298695;33;34596;-75
2022/01/07 06:35:21;;;;;;;2.95;2.47;;;;;;;-4.30;64.67;99962.44;4303815;33;34326;-69
2022/01/07 06:37:49;;;;;;;2.97;2.35;;;;;;;-4.64;66.45;99967.19;4291991;33;34115;-68
2022/01/07 06:40:17;;;;;;;4.10;2.37;;;;;;;-4.82;69.87;99969.50;4290620;33;35035;-73
2022/01/07 06:42:45;;;;;;;4.87;2.67;;;;;;;-4.25;66.49;99976.31;4298472;33;34428;-75
2022/01/07 06:45:12;;;;;;;3.67;2.20;;;;;;;-5.04;69.44;99972.41;4303374;33;34301;-75
2022/01/07 06:47:41;;;;;;;4.32;2.67;;;;;;;-5.03;72.38;99984.31;4306040;33;33811;-72
2022/01/07 06:50:09;;;;;;;4.55;2.78;;;;;;;-4.63;69.06;99976.56;4313214;33;35030;-75
2022/01/07 06:52:37;;;;;;;4.05;2.37;;;;;;;-5.40;72.05;99974.41;4301440;33;35232;-75
2022/01/07 06:55:05;;;;;;;3.30;2.15;;;;;;;-4.50;68.20;99976.53;4289258;33;33331;-75
2022/01/07 06:57:33;;;;;;;3.33;2.15;;;;;;;-4.28;65.55;99982.88;4317845;33;34004;-75
2022/01/07 07:00:01;;;;;;;4.97;2.92;;;;;;;-4.92;70.17;99978.25;4297207;33;35828;-75
2022/01/07 07:02:29;;;;;;;4.78;2.75;;;;;;;-4.81;69.70;99984.84;4313281;33;35320;-73
2022/01/07 07:04:57;;;;;;;4.25;2.47;;;;;;;-4.76;68.34;99991.09;4300602;33;33109;-75
2022/01/07 07:07:24;;;;;;;6.60;2.75;;;;;;;-4.87;70.36;99986.13;4299919;33;34759;-72
2022/01/07 07:09:53;;;;;;;8.70;3.37;;;;;;;-4.43;70.68;99988.81;4313669;33;35966;-76
2022/01/07 07:12:21;;;;;;;3.83;2.25;;;;;;;-4.04;68.75;99993.56;4290325;33;34014;-76
2022/01/07 07:14:48;;;;;;;7.05;2.35;;;;;;;-3.38;68.17;99992.22;4291532;33;33484;-76
2022/01/07 07:17:17;;;;;;;6.85;4.20;;;;;;;-1.86;64.26;99996.75;4288586;33;34685;-76
2022/01/07 07:19:44;;;;;;;5.40;2.45;;;;;;;-1.13;59.50;99990.84;4298782;33;35009;-75
2022/01/07 07:22:12;;;;;;;14.30;2.35;;;;;;;-1.82;62.24;99980.75;4304802;33;34513;-75
2022/01/07 07:24:40;;;;;;;7.62;3.62;;;;;;;-1.24;61.23;99985.25;4303072;33;34245;-71
2022/01/07 07:27:08;;;;;;;4.20;2.20;;;;;;;-0.62;57.84;99980.38;4304623;33;34018;-75
2022/01/07 07:29:36;;;;;;;3.17;1.90;;;;;;;-1.33;59.96;99995.91;4304081;33;35878;-76
2022/01/07 07:32:08;;;;;;;7.90;3.00;;;;;;;-0.93;61.10;99991.78;4286136;33;34472;-74
2022/01/07 07:37:10;;;;;;;7.28;5.28;;;;;;;-0.83;59.41;99987.94;4289207;33;34821;-71
2022/01/07 07:39:38;;;;;;;11.43;2.55;;;;;;;-0.97;60.81;99989.88;4290144;33;34491;-75
2022/01/07 07:42:06;;;;;;;33.38;9.88;;;;;;;-0.78;61.10;100002.72;4290291;33;34578;-70
2022/01/07 07:44:36;;;;;;;35.55;11.93;;;;;;;0.23;57.44;99995.09;4290382;33;32782;-71
2022/01/07 07:47:04;;;;;;;22.08;10.25;;;;;;;-0.53;60.03;99993.59;4303883;33;31988;-70
2022/01/07 07:49:32;;;;;;;19.15;9.10;;;;;;;-0.06;60.03;100006.66;4304740;33;34932;-74
2022/01/07 07:52:00;;;;;;;20.62;10.32;;;;;;;-1.15;61.75;99992.47;4290848;33;34410;-71
2022/01/07 07:54:28;;;;;;;27.50;11.02;;;;;;;-0.46;61.46;99997.25;4303858;33;34268;-76
2022/01/07 07:56:57;;;;;;;34.22;13.13;;;;;;;1.23;58.56;99999.00;4287353;33;33239;-76
2022/01/07 07:59:26;;;;;;;35.10;14.23;;;;;;;1.52;55.50;99994.06;4277419;33;35294;-73
2022/01/07 08:01:53;;;;;;;28.67;11.52;;;;;;;0.44;58.24;99997.66;4277121;33;35113;-71
2022/01/07 08:04:22;;;;;;;25.58;10.52;;;;;;;2.03;57.73;100007.00;4277222;33;33569;-76
2022/01/07 08:06:50;;;;;;;20.88;8.73;;;;;;;2.70;54.17;99996.28;4292947;33;33922;-77
2022/01/07 08:09:18;;;;;;;20.15;10.35;;;;;;;3.13;49.37;99993.34;4290137;33;35019;-76
2022/01/07 08:11:51;;;;;;;12.80;5.65;;;;;;;3.47;51.79;100001.16;4301378;33;34496;-71
2022/01/07 08:17:08;;;;;;;6.72;3.30;;;;;;;5.10;43.25;100001.00;4288244;33;34077;-78
2022/01/07 08:19:36;;;;;;;8.57;3.65;;;;;;;4.24;44.10;99998.09;4290119;33;35919;-72
2022/01/07 08:22:04;;;;;;;9.40;3.67;;;;;;;5.97;41.01;100007.94;4302699;33;34461;-78
2022/01/07 08:24:34;;;;;;;11.70;5.80;;;;;;;6.02;41.33;100007.16;4291850;33;34129;-73
2022/01/07 08:27:02;;;;;;;15.52;8.07;;;;;;;6.07;40.69;100010.72;4303375;33;33938;-77
2022/01/07 08:29:51;;;;;;;9.88;5.25;;;;;;;6.87;39.54;100005.12;4292989;33;36100;-70
2022/01/07 08:35:06;;;;;;;11.18;4.10;;;;;;;6.08;40.79;100016.75;4279346;33;34246;-71
2022/01/07 08:37:37;;;;;;;11.65;4.22;;;;;;;6.06;39.56;100008.09;4279394;33;33324;-73
2022/01/07 08:40:06;;;;;;;7.18;4.18;;;;;;;5.93;40.48;100011.25;4302394;33;35036;-69
2022/01/07 08:42:34;;;;;;;6.05;3.50;;;;;;;5.25;41.04;100002.16;4289692;33;34501;-71
2022/01/07 08:45:02;;;;;;;6.62;4.05;;;;;;;6.19;38.38;100001.41;4276678;33;33422;-77
2022/01/07 08:47:30;;;;;;;6.75;3.45;;;;;;;5.89;40.00;100010.31;4289544;33;33801;-76
2022/01/07 08:49:58;;;;;;;8.50;4.03;;;;;;;6.74;38.60;100009.22;4289987;33;35833;-75
2022/01/07 08:52:26;;;;;;;8.20;5.07;;;;;;;6.83;39.33;100014.56;4303563;33;34176;-73
2022/01/07 08:54:54;;;;;;;10.38;5.82;;;;;;;7.38;38.75;100015.34;4291385;33;34404;-78
2022/01/07 08:57:22;;;;;;;12.32;6.05;;;;;;;8.10;38.50;100012.72;4303106;33;34775;-76
2022/01/07 08:59:51;;;;;;;14.02;5.93;;;;;;;8.35;37.07;100012.94;4304028;33;35101;-78
2022/01/07 09:02:20;;;;;;;19.75;5.85;;;;;;;8.77;35.83;100018.50;4290164;33;33624;-78
2022/01/07 09:04:48;;;;;;;14.02;6.43;;;;;;;9.60;36.10;100012.06;4291212;33;33585;-78
2022/01/07 09:07:16;;;;;;;14.73;5.70;;;;;;;9.45;33.41;100009.38;4288059;33;33341;-78
2022/01/07 09:09:44;;;;;;;15.52;6.80;;;;;;;10.54;31.12;100008.81;4296863;33;35211;-75
2022/01/07 09:12:13;;;;;;;12.85;5.57;;;;;;;10.37;32.45;100007.06;4304554;33;34457;-78
2022/01/07 09:14:41;;;;;;;10.23;4.82;;;;;;;10.76;31.16;100000.09;4292696;33;33591;-72
2022/01/07 09:17:09;;;;;;;8.05;3.50;;;;;;;8.67;33.41;99995.06;4303627;33;34723;-78
2022/01/07 09:19:38;;;;;;;6.97;3.50;;;;;;;8.48;32.49;99996.62;4305668;33;35942;-72
2022/01/07 09:22:06;;;;;;;5.57;3.17;;;;;;;7.23;35.13;99997.00;4304631;33;34718;-77
2022/01/07 09:24:34;;;;;;;11.15;4.05;;;;;;;8.46;34.06;99994.91;4305792;33;33679;-78
2022/01/07 09:27:02;;;;;;;6.25;3.50;;;;;;;8.15;33.60;99995.47;4280729;33;33408;-79
2022/01/07 09:29:30;;;;;;;10.60;4.43;;;;;;;9.48;31.22;99986.88;4296944;33;34925;-79
2022/01/07 09:31:58;;;;;;;10.70;4.28;;;;;;;10.46;29.62;99985.37;4304431;33;35343;-77
2022/01/07 09:34:26;;;;;;;8.13;3.92;;;;;;;9.52;31.51;99995.56;4304829;33;34282;-72
2022/01/07 09:36:58;;;;;;;10.48;3.95;;;;;;;7.46;33.25;99981.72;4304522;33;33759;-76
2022/01/07 09:39:26;;;;;;;7.60;3.20;;;;;;;7.08;35.05;99982.12;4305466;33;35863;-71
2022/01/07 09:41:54;;;;;;;7.55;3.55;;;;;;;6.07;35.64;99989.12;4289196;33;34121;-72
2022/01/07 09:44:22;;;;;;;6.95;3.55;;;;;;;6.16;35.69;99978.97;4291108;33;33446;-71
2022/01/07 09:46:51;;;;;;;8.10;3.47;;;;;;;7.11;33.61;99968.34;4289910;33;33849;-76
2022/01/07 09:49:19;;;;;;;5.87;3.50;;;;;;;7.33;33.96;99965.19;4305385;33;35907;-77
2022/01/07 09:51:47;;;;;;;5.82;2.92;;;;;;;6.60;35.04;99968.50;4291592;33;34375;-77
2022/01/07 09:54:15;;;;;;;5.75;3.37;;;;;;;6.28;34.31;99957.59;4305432;33;33373;-75
2022/01/07 09:56:43;;;;;;;6.50;3.28;;;;;;;6.33;35.45;99948.22;4304397;33;33909;-74
2022/01/07 09:59:11;;;;;;;5.97;3.00;;;;;;;6.46;35.38;99957.06;4305610;33;35241;-76
2022/01/07 10:01:58;;;;;;;5.78;2.87;;;;;;;7.15;33.81;99952.00;4290674;33;34414;-71
2022/01/07 10:04:41;;;;;;;7.03;2.87;;;;;;;8.66;31.81;99956.09;4291613;33;33463;-77
2022/01/07 10:07:23;;;;;;;7.45;3.25;;;;;;;8.52;30.92;99953.41;4291037;33;34628;-77
2022/01/07 10:10:00;;;;;;;5.90;3.05;;;;;;;10.53;28.47;99940.22;4292367;33;35311;-76
2022/01/07 10:12:30;;;;;;;6.18;3.75;;;;;;;11.31;26.52;99952.22;4304371;33;35353;-73
2022/01/07 10:15:23;;;;;;;6.60;3.35;;;;;;;11.13;27.13;99942.69;4292775;33;33541;-77
2022/01/07 10:18:00;;;;;;;9.68;4.25;;;;;;;11.86;25.95;99940.63;4278108;33;33820;-77
2022/01/07 10:20:37;;;;;;;;;;;;;;;11.57;26.17;99933.81;4277725;33;36001;-77
2022/01/07 10:23:07;;;;;;;8.23;3.85;;;;;;;10.07;28.23;99933.25;4304240;33;35051;-77
2022/01/07 10:25:38;;;;;;;13.30;5.12;;;;;;;10.22;28.58;99934.16;4291489;33;33446;-78
2022/01/07 10:28:32;;;;;;;6.10;3.62;;;;;;;11.36;28.26;99928.72;4305216;33;34665;-72
2022/01/07 10:31:02;;;;;;;9.20;4.65;;;;;;;11.76;27.01;99920.69;4286491;33;34943;-76
2022/01/07 10:33:41;;;;;;;7.57;4.22;;;;;;;12.27;26.56;99922.97;4304859;33;34405;-75
2022/01/07 10:36:09;;;;;;;10.90;4.43;;;;;;;13.13;25.34;99903.81;4279313;33;33519;-71
2022/01/07 10:38:52;;;;;;;7.75;3.60;;;;;;;12.28;26.29;99917.75;4305007;33;34002;-74
2022/01/07 10:41:21;;;;;;;4.82;2.72;;;;;;;12.73;25.51;99903.41;4278093;33;34601;-73
2022/01/07 10:43:52;;;;;;;4.80;2.90;;;;;;;12.32;25.88;99895.94;4288764;33;34539;-72
2022/01/07 10:46:27;;;;;;;4.68;2.60;;;;;;;11.34;27.14;99904.41;4279394;33;33651;-74
2022/01/07 10:48:59;;;;;;;4.78;2.80;;;;;;;10.97;27.65;99894.13;4278187;33;33815;-74
2022/01/07 10:51:40;;;;;;;6.40;3.00;;;;;;;11.29;27.54;99900.94;4290432;33;35167;-72
2022/01/07 10:54:10;;;;;;;4.10;2.35;;;;;;;10.57;29.03;99894.22;4290810;33;34547;-71
2022/01/07 10:56:44;;;;;;;3.80;2.65;;;;;;;11.41;26.82;99894.81;4289872;33;32632;-71
2022/01/07 10:59:16;;;;;;;7.40;2.78;;;;;;;9.99;29.39;99897.72;4290663;33;34939;-73
2022/01/07 11:01:55;;;;;;;8.15;3.70;;;;;;;11.26;28.39;99885.31;4281018;33;35180;-72
2022/01/07 11:04:31;;;;;;;3.42;2.40;;;;;;;11.35;26.78;99873.09;4285378;33;35175;-71
2022/01/07 11:07:02;;;;;;;5.43;2.47;;;;;;;9.78;28.65;99882.97;4282574;33;34308;-72
2022/01/07 11:09:30;;;;;;;2.97;1.70;;;;;;;9.43;29.44;99873.34;4277931;33;33883;-72
2022/01/07 11:12:02;;;;;;;5.68;2.67;;;;;;;9.34;29.18;99868.12;4297407;33;34999;-73
2022/01/07 11:14:33;;;;;;;4.97;2.70;;;;;;;8.37;30.72;99871.09;4291133;33;34679;-71
2022/01/07 11:17:04;;;;;;;4.50;2.47;;;;;;;8.89;30.63;99870.56;4303951;33;33535;-72
2022/01/07 11:19:37;;;;;;;7.40;3.03;;;;;;;9.87;29.20;99875.16;4292367;33;34464;-75
2022/01/07 11:22:11;;;;;;;5.70;2.85;;;;;;;10.35;27.90;99850.00;4295888;33;35856;-76
2022/01/07 11:24:43;;;;;;;6.37;2.67;;;;;;;11.30;26.16;99863.59;4290536;33;34657;-70
2022/01/07 11:27:11;;;;;;;6.70;2.50;;;;;;;10.70;26.53;99856.87;4298224;33;33435;-70
2022/01/07 11:29:52;;;;;;;2.22;1.67;;;;;;;10.37;27.93;99861.28;4291301;33;34745;-72
2022/01/07 11:32:25;;;;;;;3.95;1.92;;;;;;;9.23;28.12;99853.38;4285446;33;35102;-71
2022/01/07 11:34:55;;;;;;;5.22;2.53;;;;;;;9.54;28.96;99850.84;4290316;33;35160;-71
2022/01/07 11:37:40;;;;;;;5.87;3.22;;;;;;;10.92;26.68;99843.75;4299139;33;33309;-71
2022/01/07 11:40:08;;;;;;;4.95;2.95;;;;;;;11.14;26.73;99850.63;4292205;33;34020;-74
2022/01/07 11:42:43;;;;;;;5.03;2.83;;;;;;;10.35;27.71;99831.78;4303668;33;35212;-75
2022/01/07 11:45:38;;;;;;;7.75;3.72;;;;;;;11.25;26.51;99847.09;4304842;33;33636;-74
2022/01/07 11:48:11;;;;;;;5.37;2.65;;;;;;;9.97;28.35;99843.09;4303754;33;34121;-75
2022/01/07 11:51:08;;;;;;;5.40;2.30;;;;;;;10.53;27.83;99822.19;4291788;33;33858;-72
2022/01/07 11:53:39;;;;;;;;;;;;;;;10.66;27.26;99836.03;4277701;33;36009;-73